Time;durP1;ratioP1;P1;durP2;ratioP2;P2;SDS_P1;SDS_P2;PMS_P1;PMS_P2;Temp;Humidity;BMP_temperature;BMP_pressure;BME280_temperature;BME280_humidity;BME280_pressure;Samples;Min_cycle;Max_cycle;Signal;HPM_P1;HPM_P2
2023/03/14 00:00:10;;;;;;;6.47;4.63;;;5.70;99.90;;;;;;5105656;28;20482;-80
2023/03/14 00:02:39;;;;;;;4.10;3.67;;;5.80;99.90;;;;;;5102319;28;20492;-78
2023/03/14 00:05:07;;;;;;;3.67;3.40;;;5.80;99.90;;;;;;5104234;28;20446;-80
2023/03/14 00:07:35;;;;;;;7.03;4.87;;;5.80;99.90;;;;;;5103101;28;20543;-78
2023/03/14 00:10:04;;;;;;;4.90;3.90;;;5.80;99.90;;;;;;5106152;28;20438;-77
2023/03/14 00:12:31;;;;;;;4.53;3.50;;;5.80;99.90;;;;;;5106221;28;20446;-77
2023/03/14 00:14:59;;;;;;;3.90;3.50;;;5.80;99.90;;;;;;5106277;28;20513;-80
2023/03/14 00:17:27;;;;;;;5.30;4.20;;;5.80;99.90;;;;;;5095738;28;20450;-78
2023/03/14 00:19:55;;;;;;;6.50;3.67;;;5.90;99.90;;;;;;5106622;28;20450;-80
2023/03/14 00:22:22;;;;;;;6.00;4.13;;;5.90;99.90;;;;;;5101620;28;20950;-77
2023/03/14 00:24:49;;;;;;;4.37;3.97;;;5.80;99.90;;;;;;5106415;28;20872;-78
2023/03/14 00:27:16;;;;;;;6.03;4.80;;;5.70;99.90;;;;;;5106579;28;21058;-80
2023/03/14 00:29:44;;;;;;;4.30;4.00;;;5.60;99.90;;;;;;5106181;28;20442;-77
2023/03/14 00:32:11;;;;;;;5.17;4.77;;;5.50;99.90;;;;;;5109452;28;20525;-78
2023/03/14 00:34:39;;;;;;;5.07;4.60;;;5.50;99.90;;;;;;5098429;28;20923;-77
2023/03/14 00:37:07;;;;;;;4.60;4.20;;;5.40;99.90;;;;;;5110995;28;20473;-77
2023/03/14 00:39:34;;;;;;;7.10;4.43;;;5.50;99.90;;;;;;5102329;28;20447;-77
2023/03/14 00:42:01;;;;;;;5.20;4.07;;;5.50;99.90;;;;;;5110346;28;20462;-78
2023/03/14 00:44:28;;;;;;;4.67;4.20;;;5.40;99.90;;;;;;5107049;28;20454;-78
2023/03/14 00:46:56;;;;;;;6.50;4.67;;;5.40;99.90;;;;;;5108399;28;20442;-77
2023/03/14 00:49:23;;;;;;;4.53;4.13;;;5.40;99.90;;;;;;5109819;28;20474;-79
2023/03/14 00:51:51;;;;;;;4.70;3.70;;;5.40;99.90;;;;;;5110537;28;20446;-75
2023/03/14 00:54:19;;;;;;;4.87;4.10;;;5.20;99.90;;;;;;5100842;28;20458;-74
2023/03/14 00:56:47;;;;;;;4.50;3.83;;;5.30;99.90;;;;;;5110329;28;20926;-75
2023/03/14 00:59:14;;;;;;;3.70;3.20;;;5.50;99.90;;;;;;5101986;28;20885;-75
2023/03/14 01:01:41;;;;;;;3.50;3.17;;;5.60;99.90;;;;;;5106601;28;20491;-75
2023/03/14 01:04:08;;;;;;;5.40;3.13;;;5.70;99.90;;;;;;5107424;28;20442;-77
2023/03/14 01:06:35;;;;;;;6.00;3.10;;;5.60;99.90;;;;;;5109732;28;20466;-77
2023/03/14 01:09:03;;;;;;;5.20;3.60;;;5.70;99.90;;;;;;5105555;28;20552;-79
2023/03/14 01:11:33;;;;;;;4.33;3.93;;;5.60;99.90;;;;;;5108247;28;20446;-78
2023/03/14 01:14:01;;;;;;;3.27;2.97;;;5.60;99.90;;;;;;5106803;28;20454;-79
2023/03/14 01:16:30;;;;;;;4.60;4.10;;;5.60;99.90;;;;;;5105244;28;20446;-79
2023/03/14 01:18:57;;;;;;;4.30;3.90;;;5.60;99.90;;;;;;5104794;28;20522;-78
2023/03/14 01:21:26;;;;;;;5.47;3.90;;;5.50;99.90;;;;;;5107235;28;20520;-78
2023/03/14 01:23:55;;;;;;;8.37;3.53;;;5.50;99.90;;;;;;5097809;28;20467;-78
2023/03/14 01:26:24;;;;;;;9.37;5.20;;;5.50;99.90;;;;;;5103205;28;20546;-78
2023/03/14 01:28:54;;;;;;;4.90;4.50;;;5.40;99.90;;;;;;5108778;28;20486;-78
2023/03/14 01:31:21;;;;;;;6.17;4.30;;;5.30;99.90;;;;;;5109565;28;20454;-78
2023/03/14 01:33:48;;;;;;;4.50;4.10;;;5.20;99.90;;;;;;5108988;28;20465;-79
2023/03/14 01:36:15;;;;;;;5.73;3.40;;;5.20;99.90;;;;;;5103251;28;21109;-77
2023/03/14 01:38:43;;;;;;;4.33;3.37;;;5.20;99.90;;;;;;5105673;28;21012;-78
2023/03/14 01:41:15;;;;;;;5.37;4.00;;;5.20;99.90;;;;;;5109587;28;20511;-78
2023/03/14 01:43:42;;;;;;;5.10;4.47;;;5.30;99.90;;;;;;5107920;28;20478;-78
2023/03/14 01:46:35;;;;;;;4.80;4.30;;;5.30;99.90;;;;;;5096839;28;20904;-78
2023/03/14 01:49:08;;;;;;;4.30;3.00;;;5.30;99.90;;;;;;5102848;28;20493;-79
2023/03/14 01:51:41;;;;;;;5.63;4.77;;;5.40;99.90;;;;;;5108117;28;20443;-77
2023/03/14 01:54:13;;;;;;;7.30;3.97;;;5.60;99.90;;;;;;5108373;28;20488;-77
2023/03/14 01:56:43;;;;;;;4.87;3.93;;;5.80;99.90;;;;;;5103151;28;20503;-78
2023/03/14 01:59:11;;;;;;;5.57;3.37;;;6.10;99.90;;;;;;5092551;28;20502;-77
2023/03/14 02:01:43;;;;;;;2.30;2.00;;;6.60;99.90;;;;;;5101358;28;20451;-77
2023/03/14 02:04:11;;;;;;;1.70;1.60;;;6.90;99.90;;;;;;5101180;28;20460;-77
2023/03/14 02:06:47;;;;;;;2.90;2.30;;;7.00;99.90;;;;;;5108795;28;20454;-77
2023/03/14 02:09:15;;;;;;;2.10;1.30;;;7.30;99.90;;;;;;5098360;28;21290;-77
2023/03/14 02:11:42;;;;;;;1.80;1.33;;;7.60;99.90;;;;;;5108615;28;20458;-78
2023/03/14 02:14:15;;;;;;;1.33;1.23;;;7.70;99.90;;;;;;5108866;28;20586;-78
2023/03/14 02:16:43;;;;;;;2.20;1.53;;;7.80;99.90;;;;;;5107818;28;20479;-77
2023/03/14 02:19:13;;;;;;;2.53;2.00;;;7.80;99.90;;;;;;5099786;28;20521;-78
2023/03/14 02:21:50;;;;;;;3.67;1.80;;;7.80;99.90;;;;;;5106764;28;20443;-77
2023/03/14 02:24:23;;;;;;;2.27;1.67;;;7.80;99.90;;;;;;5100729;28;20967;-77
2023/03/14 02:27:20;;;;;;;2.70;2.10;;;7.70;99.90;;;;;;5107502;28;20852;-79
2023/03/14 02:29:51;;;;;;;2.50;1.97;;;7.60;99.90;;;;;;5057905;28;20502;-78
2023/03/14 02:32:20;;;;;;;2.23;1.77;;;7.50;99.90;;;;;;5106600;28;20440;-79
2023/03/14 02:34:51;;;;;;;3.17;2.20;;;7.40;99.90;;;;;;5108134;28;20859;-78
2023/03/14 02:37:21;;;;;;;2.40;1.73;;;7.50;99.90;;;;;;5103562;28;21052;-78
2023/03/14 02:39:49;;;;;;;4.43;1.63;;;7.70;99.90;;;;;;5099387;28;20462;-78
2023/03/14 02:42:16;;;;;;;2.07;1.60;;;7.80;99.90;;;;;;5106634;28;20469;-77
2023/03/14 02:44:54;;;;;;;2.00;0.80;;;8.10;99.90;;;;;;5101596;28;20940;-78
2023/03/14 02:47:26;;;;;;;2.40;1.20;;;8.30;99.90;;;;;;5103171;28;20455;-78
2023/03/14 02:49:57;;;;;;;1.33;0.90;;;8.40;99.90;;;;;;5103730;28;20482;-78
2023/03/14 02:52:24;;;;;;;1.43;1.33;;;8.60;99.90;;;;;;5106895;28;20503;-78
2023/03/14 02:54:51;;;;;;;1.47;0.73;;;8.70;99.90;;;;;;5105456;28;20934;-77
2023/03/14 02:57:18;;;;;;;1.93;0.70;;;8.90;99.90;;;;;;5106360;28;20470;-77
2023/03/14 02:59:45;;;;;;;1.30;0.70;;;9.00;99.90;;;;;;5106454;28;20503;-78
2023/03/14 03:02:13;;;;;;;1.03;0.60;;;9.00;99.90;;;;;;5106659;28;20453;-78
2023/03/14 03:04:40;;;;;;;0.80;0.70;;;9.00;99.90;;;;;;5107185;28;21168;-79
2023/03/14 03:07:08;;;;;;;2.03;0.80;;;8.90;99.90;;;;;;5105429;28;20519;-78
2023/03/14 03:09:34;;;;;;;1.33;0.90;;;8.80;99.90;;;;;;5096948;28;20482;-77
2023/03/14 03:12:01;;;;;;;1.00;0.80;;;8.60;99.90;;;;;;5106461;28;20462;-77
2023/03/14 03:14:28;;;;;;;1.47;0.97;;;8.70;99.90;;;;;;5107725;28;20443;-78
2023/03/14 03:16:55;;;;;;;1.60;0.90;;;8.80;99.90;;;;;;5106704;28;20450;-79
2023/03/14 03:19:24;;;;;;;0.70;0.63;;;8.70;99.90;;;;;;5107488;28;20458;-77
2023/03/14 03:21:51;;;;;;;0.80;0.80;;;8.50;99.90;;;;;;5106004;28;20510;-79
2023/03/14 03:24:17;;;;;;;2.23;0.83;;;8.30;99.90;;;;;;5106423;28;21043;-78
2023/03/14 03:26:44;;;;;;;1.00;0.80;;;8.20;99.90;;;;;;5106486;28;20515;-78
2023/03/14 03:29:11;;;;;;;1.37;0.70;;;8.10;99.90;;;;;;5097327;28;20487;-78
2023/03/14 03:31:39;;;;;;;0.90;0.70;;;8.10;99.90;;;;;;5100449;28;21021;-76
2023/03/14 03:34:06;;;;;;;1.63;0.80;;;7.90;99.90;;;;;;5097155;28;21001;-76
2023/03/14 03:36:34;;;;;;;1.17;0.70;;;7.80;99.90;;;;;;5101058;28;20539;-76
2023/03/14 03:39:01;;;;;;;1.30;0.80;;;7.80;99.90;;;;;;5104418;28;20455;-76
2023/03/14 03:41:29;;;;;;;0.67;0.67;;;7.80;99.90;;;;;;5101387;28;20515;-77
2023/03/14 03:43:56;;;;;;;0.70;0.60;;;7.80;99.90;;;;;;5104930;28;20956;-75
2023/03/14 03:46:24;;;;;;;1.37;0.63;;;7.90;99.90;;;;;;5100679;28;20450;-76
2023/03/14 03:48:56;;;;;;;0.63;0.60;;;8.10;99.90;;;;;;5105740;28;20486;-75
2023/03/14 03:51:22;;;;;;;0.70;0.50;;;8.30;99.90;;;;;;5099050;28;20447;-76
2023/03/14 03:53:51;;;;;;;0.80;0.70;;;8.40;99.90;;;;;;5104554;28;20466;-77
2023/03/14 03:56:18;;;;;;;0.60;0.50;;;8.60;99.90;;;;;;5099001;28;20520;-75
2023/03/14 03:58:45;;;;;;;1.30;0.50;;;8.90;99.90;;;;;;5105598;28;20458;-74
2023/03/14 04:01:12;;;;;;;2.50;0.40;;;9.10;99.90;;;;;;5106041;28;20459;-76
2023/03/14 04:03:40;;;;;;;0.50;0.50;;;9.20;99.90;;;;;;5101794;28;20451;-76
2023/03/14 04:06:09;;;;;;;0.83;0.60;;;9.20;99.90;;;;;;5104609;28;20823;-78
2023/03/14 04:08:36;;;;;;;0.40;0.30;;;9.30;99.90;;;;;;5099829;28;21098;-76
2023/03/14 04:11:05;;;;;;;0.40;0.40;;;9.40;99.90;;;;;;5102783;28;20485;-76
2023/03/14 04:13:32;;;;;;;0.80;0.60;;;9.50;99.90;;;;;;5105861;28;20462;-76
2023/03/14 04:15:59;;;;;;;1.27;0.53;;;9.50;99.90;;;;;;5093751;28;20465;-76
2023/03/14 04:18:27;;;;;;;0.50;0.47;;;9.50;99.90;;;;;;5104266;28;20487;-76
2023/03/14 04:20:55;;;;;;;0.60;0.40;;;9.50;99.90;;;;;;5098934;28;21035;-76
2023/03/14 04:23:29;;;;;;;0.70;0.60;;;9.50;99.90;;;;;;5095122;28;20480;-76
2023/03/14 04:25:56;;;;;;;3.30;0.60;;;9.50;99.90;;;;;;5098339;28;20568;-76
2023/03/14 04:28:24;;;;;;;0.60;0.43;;;9.50;99.90;;;;;;5098609;28;20458;-76
2023/03/14 04:30:51;;;;;;;0.90;0.50;;;9.50;99.90;;;;;;5105177;28;20458;-78
2023/03/14 04:33:18;;;;;;;0.70;0.40;;;9.50;99.90;;;;;;5103098;28;20440;-76
2023/03/14 04:35:46;;;;;;;1.77;0.40;;;9.70;99.90;;;;;;5101991;28;20467;-76
2023/03/14 04:38:13;;;;;;;0.70;0.40;;;9.90;99.90;;;;;;5105143;28;20458;-78
2023/03/14 04:40:41;;;;;;;0.60;0.50;;;10.00;99.90;;;;;;5103600;28;20938;-76
2023/03/14 04:43:09;;;;;;;0.50;0.40;;;10.10;99.90;;;;;;5100592;28;20544;-76
2023/03/14 04:45:38;;;;;;;0.40;0.30;;;10.20;99.90;;;;;;5100251;28;20535;-77
2023/03/14 04:48:05;;;;;;;0.50;0.40;;;10.30;99.90;;;;;;5099659;28;20450;-76
2023/03/14 04:50:32;;;;;;;0.60;0.60;;;10.30;99.90;;;;;;5105224;28;20486;-77
2023/03/14 04:52:59;;;;;;;0.80;0.40;;;10.30;99.90;;;;;;5100463;28;20446;-77
2023/03/14 04:55:26;;;;;;;1.23;0.40;;;10.20;99.90;;;;;;5102620;28;20454;-76
2023/03/14 04:57:53;;;;;;;0.40;0.30;;;10.20;99.90;;;;;;5105336;28;20946;-77
2023/03/14 05:00:20;;;;;;;0.60;0.40;;;10.20;99.90;;;;;;5094669;28;20491;-77
2023/03/14 05:02:49;;;;;;;0.50;0.40;;;10.20;99.90;;;;;;5103762;28;21207;-77
2023/03/14 05:05:16;;;;;;;0.40;0.30;;;10.10;99.90;;;;;;5092051;28;20509;-78
2023/03/14 05:07:43;;;;;;;0.50;0.40;;;10.10;99.90;;;;;;5103667;28;20465;-78
2023/03/14 05:10:11;;;;;;;0.50;0.40;;;10.00;99.90;;;;;;5098980;28;20486;-78
2023/03/14 05:12:38;;;;;;;0.50;0.30;;;10.10;99.90;;;;;;5095333;28;21172;-77
2023/03/14 05:15:06;;;;;;;0.83;0.40;;;10.10;99.90;;;;;;5104913;28;20476;-78
2023/03/14 05:17:34;;;;;;;0.67;0.30;;;10.10;99.90;;;;;;5104644;28;20530;-77
2023/03/14 05:20:07;;;;;;;0.90;0.50;;;10.00;99.90;;;;;;5107389;28;20842;-77
2023/03/14 05:22:34;;;;;;;0.50;0.40;;;9.70;99.90;;;;;;5100846;28;20497;-77
2023/03/14 05:25:01;;;;;;;0.40;0.33;;;9.50;99.90;;;;;;5101414;28;20490;-76
2023/03/14 05:27:29;;;;;;;0.60;0.40;;;9.30;99.90;;;;;;5105684;28;20491;-76
2023/03/14 05:29:56;;;;;;;0.93;0.40;;;9.10;99.90;;;;;;5106178;28;20482;-76
2023/03/14 05:32:23;;;;;;;0.90;0.40;;;9.00;99.90;;;;;;5107419;28;20539;-76
2023/03/14 05:34:50;;;;;;;0.40;0.30;;;8.90;99.90;;;;;;5104279;28;20458;-75
2023/03/14 05:37:18;;;;;;;0.53;0.30;;;8.90;99.90;;;;;;5100392;28;20462;-75
2023/03/14 05:39:45;;;;;;;0.60;0.50;;;8.80;99.90;;;;;;5095950;28;21016;-76
2023/03/14 05:42:13;;;;;;;0.50;0.37;;;8.70;99.90;;;;;;5100551;28;20538;-78
2023/03/14 05:44:40;;;;;;;0.60;0.50;;;8.60;99.90;;;;;;5094927;28;20815;-76
2023/03/14 05:47:07;;;;;;;1.87;0.50;;;8.60;99.90;;;;;;5105693;28;20442;-77
2023/03/14 05:49:34;;;;;;;0.40;0.40;;;8.60;99.90;;;;;;5102949;28;20487;-77
2023/03/14 05:52:00;;;;;;;3.13;0.50;;;8.60;99.90;;;;;;5098384;28;20446;-79
2023/03/14 05:54:29;;;;;;;0.60;0.50;;;8.50;99.90;;;;;;5095010;28;20535;-78
2023/03/14 05:56:56;;;;;;;0.70;0.43;;;8.50;99.90;;;;;;5103215;28;20443;-77
2023/03/14 05:59:23;;;;;;;1.53;0.60;;;8.60;99.90;;;;;;5107529;28;20466;-78
2023/03/14 06:01:50;;;;;;;1.33;0.50;;;8.60;99.90;;;;;;5107774;28;20500;-78
2023/03/14 06:04:17;;;;;;;0.70;0.40;;;8.50;99.90;;;;;;5102260;28;20446;-78
2023/03/14 06:06:43;;;;;;;0.97;0.60;;;8.50;99.90;;;;;;5106768;28;20497;-78
2023/03/14 06:09:10;;;;;;;0.70;0.50;;;8.60;99.90;;;;;;5099851;28;21072;-78
2023/03/14 06:11:39;;;;;;;0.70;0.67;;;8.60;99.90;;;;;;5102191;28;20462;-78
2023/03/14 06:14:06;;;;;;;0.80;0.80;;;8.70;99.90;;;;;;5099032;28;21088;-78
2023/03/14 06:16:33;;;;;;;0.77;0.60;;;8.60;99.90;;;;;;5105921;28;20454;-80
2023/03/14 06:18:59;;;;;;;1.20;0.60;;;8.60;99.90;;;;;;5100108;28;20523;-78
2023/03/14 06:21:26;;;;;;;0.60;0.50;;;8.60;99.90;;;;;;5100311;28;20451;-78
2023/03/14 06:23:53;;;;;;;0.47;0.40;;;8.50;99.90;;;;;;5099201;28;20500;-78
2023/03/14 06:26:21;;;;;;;0.50;0.40;;;8.50;99.90;;;;;;5093530;28;20487;-78
2023/03/14 06:28:50;;;;;;;0.80;0.30;;;8.50;99.90;;;;;;5103320;28;20463;-77
2023/03/14 06:31:17;;;;;;;0.50;0.30;;;8.50;99.90;;;;;;5101273;28;20450;-78
2023/03/14 06:33:44;;;;;;;1.83;0.60;;;8.50;99.90;;;;;;5100280;28;20537;-78
2023/03/14 06:36:11;;;;;;;0.40;0.30;;;8.50;99.90;;;;;;5099829;28;20865;-79
2023/03/14 06:38:38;;;;;;;1.90;0.30;;;8.50;99.90;;;;;;5098847;28;20454;-79
2023/03/14 06:41:06;;;;;;;0.80;0.53;;;8.50;99.90;;;;;;5099173;28;20454;-79
2023/03/14 06:43:33;;;;;;;0.40;0.30;;;8.50;99.90;;;;;;5103945;28;21311;-78
2023/03/14 06:46:01;;;;;;;0.50;0.30;;;8.50;99.90;;;;;;5096626;28;20507;-78
2023/03/14 06:48:28;;;;;;;0.53;0.40;;;8.50;99.90;;;;;;5106973;28;20482;-76
2023/03/14 06:50:55;;;;;;;0.40;0.30;;;8.50;99.90;;;;;;5095294;28;20559;-77
2023/03/14 06:53:22;;;;;;;0.40;0.30;;;8.50;99.90;;;;;;5094538;28;20505;-77
2023/03/14 06:55:49;;;;;;;0.60;0.50;;;8.50;99.90;;;;;;5096499;28;20515;-78
2023/03/14 06:58:16;;;;;;;0.40;0.33;;;8.50;99.90;;;;;;5092452;28;20486;-77
2023/03/14 07:00:43;;;;;;;0.50;0.43;;;8.50;99.90;;;;;;5096429;28;20495;-76
2023/03/14 07:03:13;;;;;;;0.40;0.30;;;8.50;99.90;;;;;;5096886;28;20583;-78
2023/03/14 07:05:41;;;;;;;0.53;0.47;;;8.50;99.90;;;;;;5101563;28;20459;-77
2023/03/14 07:08:09;;;;;;;0.50;0.37;;;8.60;99.90;;;;;;5100428;28;20481;-77
2023/03/14 07:10:36;;;;;;;0.50;0.47;;;8.60;99.90;;;;;;5106251;28;20538;-78
2023/03/14 07:13:03;;;;;;;0.50;0.40;;;8.70;99.90;;;;;;5106592;28;20458;-77
2023/03/14 07:15:30;;;;;;;0.70;0.50;;;8.60;99.90;;;;;;5105295;28;20499;-77
2023/03/14 07:17:57;;;;;;;0.40;0.40;;;8.60;99.90;;;;;;5099724;28;20459;-77
2023/03/14 07:20:25;;;;;;;0.60;0.50;;;8.70;99.90;;;;;;5105494;28;20446;-77
2023/03/14 07:22:52;;;;;;;0.90;0.50;;;8.60;99.90;;;;;;5092064;28;20447;-78
2023/03/14 07:25:19;;;;;;;1.10;1.00;;;8.60;99.90;;;;;;5088992;28;20519;-77
2023/03/14 07:27:47;;;;;;;14.93;11.83;;;8.70;99.90;;;;;;5089967;28;20448;-79
2023/03/14 07:30:14;;;;;;;1.90;1.60;;;8.80;99.90;;;;;;5100022;28;20565;-78
2023/03/14 07:32:41;;;;;;;1.03;0.63;;;8.90;99.90;;;;;;5094636;28;20462;-77
2023/03/14 07:35:09;;;;;;;18.93;12.80;;;8.90;99.90;;;;;;5093241;28;20486;-77
2023/03/14 07:37:37;;;;;;;111.03;72.33;;;9.00;99.90;;;;;;5084478;28;20512;-77
2023/03/14 07:40:06;;;;;;;17.23;11.03;;;9.00;99.90;;;;;;5093174;28;20467;-77
2023/03/14 07:42:33;;;;;;;38.50;25.40;;;9.00;99.90;;;;;;5105732;28;20450;-77
2023/03/14 07:45:00;;;;;;;59.53;34.47;;;9.10;99.90;;;;;;5098943;28;20499;-77
2023/03/14 07:47:27;;;;;;;38.13;25.60;;;9.10;99.90;;;;;;5096890;28;20470;-78
2023/03/14 07:49:54;;;;;;;3.47;3.13;;;9.10;99.90;;;;;;5094529;28;20554;-77
2023/03/14 07:52:21;;;;;;;24.80;22.10;;;9.10;99.90;;;;;;5097750;28;20454;-78
2023/03/14 07:54:49;;;;;;;6.17;4.07;;;9.20;99.90;;;;;;5094082;28;20442;-77
2023/03/14 07:57:16;;;;;;;21.97;17.20;;;9.20;99.90;;;;;;5097198;28;20508;-77
2023/03/14 07:59:43;;;;;;;26.77;18.33;;;9.20;99.90;;;;;;5096758;28;20467;-77
2023/03/14 08:02:12;;;;;;;4.07;2.60;;;9.30;99.90;;;;;;5101985;28;20450;-77
2023/03/14 08:04:40;;;;;;;0.50;0.40;;;9.30;99.90;;;;;;5106658;28;20519;-75
2023/03/14 08:07:07;;;;;;;3.67;0.97;;;9.20;99.90;;;;;;5101541;28;20523;-75
2023/03/14 08:09:35;;;;;;;1.07;0.60;;;9.20;99.90;;;;;;5103865;28;20567;-77
2023/03/14 08:12:03;;;;;;;2.13;1.73;;;9.20;99.90;;;;;;5105339;28;20482;-82
2023/03/14 08:14:30;;;;;;;3.20;1.87;;;9.00;99.90;;;;;;5102158;28;20503;-78
2023/03/14 08:16:57;;;;;;;0.60;0.50;;;8.90;99.90;;;;;;5103395;28;20463;-77
2023/03/14 08:19:24;;;;;;;1.20;0.70;;;8.90;99.90;;;;;;5105279;28;20492;-78
2023/03/14 08:21:51;;;;;;;1.70;0.80;;;8.80;99.90;;;;;;5104387;28;20496;-78
2023/03/14 08:24:18;;;;;;;1.93;0.93;;;8.70;99.90;;;;;;5103222;28;20522;-77
2023/03/14 08:26:45;;;;;;;1.40;0.80;;;8.60;99.90;;;;;;5104066;28;20482;-76
2023/03/14 08:29:13;;;;;;;0.90;0.70;;;8.60;99.90;;;;;;5097140;28;20916;-79
2023/03/14 08:31:40;;;;;;;0.83;0.60;;;8.50;99.90;;;;;;5102045;28;21209;-77
2023/03/14 08:34:07;;;;;;;1.97;0.50;;;8.30;99.90;;;;;;5102272;28;20519;-79
2023/03/14 08:36:35;;;;;;;2.47;1.00;;;8.30;99.90;;;;;;5104745;28;20454;-75
2023/03/14 08:39:03;;;;;;;0.50;0.30;;;8.20;99.90;;;;;;5093352;28;20491;-77
2023/03/14 08:41:30;;;;;;;0.60;0.30;;;8.20;99.90;;;;;;5095205;28;20462;-77
2023/03/14 08:43:57;;;;;;;2.10;0.60;;;8.20;99.90;;;;;;5098652;28;20854;-77
2023/03/14 08:46:25;;;;;;;1.33;0.60;;;8.20;99.90;;;;;;5099930;28;20478;-76
2023/03/14 08:48:52;;;;;;;0.40;0.30;;;8.20;99.90;;;;;;5104834;28;20438;-77
2023/03/14 08:51:19;;;;;;;1.70;0.30;;;8.10;99.90;;;;;;5102696;28;20482;-77
2023/03/14 08:53:46;;;;;;;1.70;0.40;;;8.10;99.90;;;;;;5099676;28;20889;-76
2023/03/14 08:56:13;;;;;;;0.87;0.30;;;8.10;99.90;;;;;;5104674;28;20450;-78
2023/03/14 08:58:41;;;;;;;0.80;0.40;;;8.00;99.90;;;;;;5106253;28;20462;-78
2023/03/14 09:01:10;;;;;;;0.50;0.30;;;7.90;99.90;;;;;;5103200;28;20493;-77
2023/03/14 09:03:39;;;;;;;0.93;0.47;;;7.80;99.90;;;;;;5107934;28;20438;-77
2023/03/14 09:06:07;;;;;;;0.60;0.40;;;7.80;99.90;;;;;;5103716;28;20463;-77
2023/03/14 09:08:34;;;;;;;0.70;0.30;;;7.80;99.90;;;;;;5106007;28;20507;-78
2023/03/14 09:11:02;;;;;;;0.40;0.40;;;7.80;99.90;;;;;;5099799;28;20493;-77
2023/03/14 09:13:29;;;;;;;1.50;1.03;;;7.80;99.90;;;;;;5109589;28;20454;-77
2023/03/14 09:15:57;;;;;;;2.40;1.23;;;7.70;99.90;;;;;;5107213;28;20495;-77
2023/03/14 09:18:24;;;;;;;0.50;0.40;;;7.70;99.90;;;;;;5105925;28;20458;-77
2023/03/14 09:20:52;;;;;;;0.50;0.40;;;7.60;99.90;;;;;;5101397;28;20595;-77
2023/03/14 09:23:19;;;;;;;0.50;0.40;;;7.60;99.90;;;;;;5107234;28;20450;-77
2023/03/14 09:25:46;;;;;;;0.50;0.40;;;7.50;99.90;;;;;;5101800;28;21118;-79
2023/03/14 09:28:13;;;;;;;0.67;0.30;;;7.50;99.90;;;;;;5108763;28;20442;-77
2023/03/14 09:30:40;;;;;;;0.80;0.40;;;7.50;99.90;;;;;;5108393;28;20485;-78
2023/03/14 09:33:07;;;;;;;0.63;0.60;;;7.40;99.90;;;;;;5096441;28;20504;-76
2023/03/14 09:35:35;;;;;;;1.33;0.40;;;7.50;99.90;;;;;;5100702;28;20462;-75
2023/03/14 09:38:03;;;;;;;1.43;0.30;;;7.50;99.90;;;;;;5101885;28;20454;-78
2023/03/14 09:40:35;;;;;;;1.27;0.40;;;7.50;99.90;;;;;;5099114;28;20503;-76
2023/03/14 09:43:03;;;;;;;0.40;0.30;;;7.50;99.90;;;;;;5102261;28;20463;-75
2023/03/14 09:45:34;;;;;;;0.40;0.20;;;7.40;99.90;;;;;;5104128;28;20455;-76
2023/03/14 09:48:04;;;;;;;0.50;0.40;;;7.40;99.90;;;;;;5093157;28;20455;-76
2023/03/14 09:50:38;;;;;;;1.10;0.30;;;7.50;99.90;;;;;;5104614;28;20482;-76
2023/03/14 09:53:12;;;;;;;0.70;0.40;;;7.40;99.90;;;;;;5098927;28;20460;-76
2023/03/14 09:55:39;;;;;;;0.70;0.30;;;7.40;99.90;;;;;;5109239;28;20539;-76
2023/03/14 09:58:12;;;;;;;2.40;0.47;;;7.40;99.90;;;;;;5107777;28;20455;-76
2023/03/14 10:00:39;;;;;;;2.73;0.50;;;7.40;99.90;;;;;;5079285;28;20979;-79
2023/03/14 10:03:25;;;;;;;0.50;0.40;;;7.40;99.90;;;;;;5104264;28;20497;-75
2023/03/14 10:05:52;;;;;;;1.27;0.40;;;7.30;99.90;;;;;;5102874;28;20790;-76
2023/03/14 10:08:20;;;;;;;0.40;0.30;;;7.40;99.90;;;;;;5100793;28;21152;-76
2023/03/14 10:10:47;;;;;;;2.47;0.90;;;7.50;99.90;;;;;;5096687;28;20916;-75
2023/03/14 10:13:17;;;;;;;1.00;0.50;;;7.40;99.90;;;;;;5098088;28;20466;-76
2023/03/14 10:15:49;;;;;;;1.47;0.50;;;7.40;99.90;;;;;;5108043;28;20861;-77
2023/03/14 10:18:16;;;;;;;0.50;0.40;;;7.40;99.90;;;;;;5105753;28;21106;-76
2023/03/14 10:20:45;;;;;;;2.10;0.30;;;7.50;99.90;;;;;;5108805;28;20446;-76
2023/03/14 10:23:28;;;;;;;0.40;0.40;;;7.50;99.90;;;;;;5104933;28;20851;-77
2023/03/14 10:26:07;;;;;;;2.70;0.50;;;7.50;99.90;;;;;;5098630;28;20478;-76
2023/03/14 10:28:39;;;;;;;0.40;0.30;;;7.50;99.90;;;;;;5097291;28;20463;-76
2023/03/14 10:31:06;;;;;;;1.03;0.30;;;7.40;99.90;;;;;;5106712;28;20535;-77
2023/03/14 10:33:34;;;;;;;0.67;0.40;;;7.40;99.90;;;;;;5104756;28;21027;-77
2023/03/14 10:36:04;;;;;;;0.40;0.20;;;7.30;99.90;;;;;;5098155;28;20995;-76
2023/03/14 10:38:34;;;;;;;0.50;0.40;;;7.30;99.90;;;;;;5099101;28;20498;-76
2023/03/14 10:41:02;;;;;;;3.03;0.40;;;7.30;99.90;;;;;;5107469;28;20496;-76
2023/03/14 10:43:34;;;;;;;0.90;0.30;;;7.30;99.90;;;;;;5100314;28;20447;-76
2023/03/14 10:46:07;;;;;;;2.53;2.10;;;7.40;99.90;;;;;;5097464;28;20446;-76
2023/03/14 10:48:36;;;;;;;0.43;0.30;;;7.40;99.90;;;;;;5108004;28;20503;-77
2023/03/14 10:51:08;;;;;;;0.50;0.40;;;7.40;99.90;;;;;;5104672;28;21009;-76
2023/03/14 10:53:42;;;;;;;0.40;0.30;;;7.50;99.90;;;;;;5098632;28;20451;-76
2023/03/14 10:56:13;;;;;;;0.40;0.33;;;7.60;99.90;;;;;;5104171;28;20459;-78
2023/03/14 10:58:42;;;;;;;0.40;0.20;;;7.50;99.90;;;;;;5107143;28;20466;-77
2023/03/14 11:01:32;;;;;;;1.77;0.30;;;7.50;99.90;;;;;;5097018;28;21173;-77
2023/03/14 11:04:03;;;;;;;0.40;0.20;;;7.50;99.90;;;;;;5104971;28;20446;-77
2023/03/14 11:06:40;;;;;;;0.40;0.30;;;7.60;99.90;;;;;;5097099;28;20470;-75
2023/03/14 11:09:16;;;;;;;2.07;0.80;;;7.70;99.90;;;;;;5095879;28;20496;-77
2023/03/14 11:11:47;;;;;;;0.93;0.30;;;7.90;99.90;;;;;;5098897;28;20482;-76
2023/03/14 11:14:24;;;;;;;0.77;0.40;;;7.90;99.90;;;;;;5102984;28;20495;-76
2023/03/14 11:16:57;;;;;;;2.80;1.07;;;8.00;99.90;;;;;;5104559;28;21178;-77
2023/03/14 11:19:38;;;;;;;0.40;0.20;;;8.10;99.90;;;;;;5105489;28;20462;-76
2023/03/14 11:22:13;;;;;;;0.63;0.20;;;8.00;99.90;;;;;;5099174;28;20454;-76
2023/03/14 11:24:53;;;;;;;0.40;0.20;;;8.20;99.90;;;;;;5104348;28;20889;-75
2023/03/14 11:27:24;;;;;;;0.50;0.30;;;8.50;99.90;;;;;;5106300;28;20446;-77
2023/03/14 11:29:56;;;;;;;1.00;0.40;;;8.60;99.90;;;;;;5105454;28;20458;-77
2023/03/14 11:32:38;;;;;;;1.17;0.30;;;8.70;99.90;;;;;;5093168;28;20475;-76
2023/03/14 11:35:15;;;;;;;0.40;0.30;;;8.90;99.90;;;;;;5097616;28;20448;-76
2023/03/14 11:37:50;;;;;;;0.47;0.30;;;9.00;99.90;;;;;;5097535;28;20499;-76
2023/03/14 11:40:22;;;;;;;0.40;0.37;;;9.20;99.90;;;;;;5100899;28;20446;-76
2023/03/14 11:42:56;;;;;;;0.70;0.40;;;9.30;99.90;;;;;;5105624;28;20530;-76
2023/03/14 11:45:29;;;;;;;0.60;0.30;;;9.30;99.90;;;;;;5106221;28;20438;-77
2023/03/14 11:48:07;;;;;;;0.90;0.50;;;9.40;99.90;;;;;;5106368;28;20442;-77
2023/03/14 11:50:36;;;;;;;0.43;0.30;;;9.50;99.90;;;;;;5102933;28;20458;-75
2023/03/14 11:53:07;;;;;;;1.23;0.50;;;9.50;99.90;;;;;;5104952;28;20528;-77
2023/03/14 11:55:38;;;;;;;1.10;0.30;;;9.50;99.90;;;;;;5106232;28;20451;-77
2023/03/14 11:58:13;;;;;;;0.57;0.30;;;9.40;99.90;;;;;;5103168;28;20998;-76
2023/03/14 12:00:41;;;;;;;0.93;0.40;;;9.40;99.90;;;;;;5095229;28;20962;-76
2023/03/14 12:03:18;;;;;;;0.40;0.30;;;9.40;99.90;;;;;;5097427;28;20919;-76
2023/03/14 12:05:53;;;;;;;0.40;0.30;;;9.30;99.90;;;;;;5099771;28;20446;-76
2023/03/14 12:08:48;;;;;;;0.60;0.50;;;9.40;99.90;;;;;;5104984;28;20446;-75
2023/03/14 12:11:22;;;;;;;0.40;0.30;;;9.40;99.90;;;;;;5100306;28;20482;-77
2023/03/14 12:13:51;;;;;;;0.40;0.30;;;9.50;99.90;;;;;;5100434;28;20458;-75
2023/03/14 12:16:31;;;;;;;0.93;0.40;;;9.60;99.90;;;;;;5102850;28;20459;-75
2023/03/14 12:19:13;;;;;;;1.30;0.50;;;9.60;99.90;;;;;;5098213;28;20966;-75
2023/03/14 12:21:52;;;;;;;0.80;0.47;;;9.60;99.90;;;;;;5100599;28;20531;-76
2023/03/14 12:24:23;;;;;;;0.50;0.20;;;9.60;99.90;;;;;;5096770;28;20497;-75
2023/03/14 12:26:55;;;;;;;0.63;0.40;;;9.50;99.90;;;;;;5102672;28;20827;-76
2023/03/14 12:29:22;;;;;;;0.43;0.30;;;9.50;99.90;;;;;;5107183;28;20447;-78
2023/03/14 12:31:50;;;;;;;0.50;0.20;;;9.50;99.90;;;;;;5107252;28;20569;-76
2023/03/14 12:34:31;;;;;;;0.60;0.30;;;9.60;99.90;;;;;;5109314;28;20451;-77
2023/03/14 12:37:11;;;;;;;0.40;0.20;;;9.60;99.90;;;;;;5106840;28;20521;-77
2023/03/14 12:39:46;;;;;;;0.30;0.20;;;9.40;99.90;;;;;;5104046;28;20871;-76
2023/03/14 12:42:22;;;;;;;0.80;0.20;;;9.50;99.90;;;;;;5104667;28;20451;-76
2023/03/14 12:44:50;;;;;;;0.40;0.27;;;9.40;99.90;;;;;;5104486;28;20458;-76
2023/03/14 12:47:50;;;;;;;0.40;0.30;;;9.20;99.90;;;;;;5100294;28;21019;-76
2023/03/14 12:50:24;;;;;;;0.53;0.30;;;9.20;99.90;;;;;;5075547;28;20454;-78
2023/03/14 12:53:48;;;;;;;0.30;0.20;;;9.30;99.90;;;;;;5105824;28;20998;-75
2023/03/14 12:56:38;;;;;;;0.80;0.30;;;9.20;99.90;;;;;;5101875;28;20462;-76
2023/03/14 12:59:35;;;;;;;0.67;0.30;;;9.30;99.90;;;;;;5104955;28;20938;-77
2023/03/14 13:02:15;;;;;;;0.50;0.30;;;9.40;99.90;;;;;;5092891;28;20458;-76
2023/03/14 13:04:47;;;;;;;0.50;0.30;;;9.50;99.90;;;;;;5106806;28;20537;-76
2023/03/14 13:07:29;;;;;;;2.83;0.60;;;9.60;99.90;;;;;;5099796;28;20451;-76